FlightSource - Aviation Photo Database

World Wide Airport Lookup


Search by ICAO
Or
Search by City

FlightSource.ca - Aviation Photo Database - Natashquan Airport Information
Airport Identification
Name: Natashquan Airport
ICAO: CYNA
IATA: YNA
Airport Location
City: Natashquan
Region: QC
Country: Canada
Continent: North America
Latitude: 50.19
Longitude: -61.7892
Airport Information
Type: Medium Airport
Elevation: 39 Feet ASL
Flight Status: CYNA
More Info: CYNA
Airport Weather    
Metar: CYNA 240207Z AUTO 27013G22KT 9SM OVC026 M01/M02 A2952 RMK SLP998
TAF:


Advertisement